createdAt,value
2018-09-02T00:02:20.554Z,88.74
2018-09-02T00:04:53.893Z,88.99
2018-09-02T00:07:22.752Z,89.31
2018-09-02T00:09:51.649Z,89.71
2018-09-02T00:12:20.448Z,89.69
2018-09-02T00:14:50.901Z,89.54
2018-09-02T00:17:19.676Z,89.76
2018-09-02T00:19:48.538Z,89.66
2018-09-02T00:22:18.925Z,90.07
2018-09-02T00:24:47.638Z,90.42
2018-09-02T00:27:16.420Z,90.49
2018-09-02T00:29:45.193Z,90.21
2018-09-02T00:32:14.823Z,89.75
2018-09-02T00:34:44.664Z,90.29
2018-09-02T00:37:13.421Z,90.56
2018-09-02T00:39:42.219Z,90.77
2018-09-02T00:42:11.008Z,90.84
2018-09-02T00:44:39.858Z,90.49
2018-09-02T00:47:08.598Z,90.30
2018-09-02T00:49:37.172Z,90.11
2018-09-02T00:52:06.169Z,90.43
2018-09-02T00:54:34.974Z,90.70
2018-09-02T00:57:03.807Z,90.70
2018-09-02T00:59:32.610Z,90.48
2018-09-02T01:02:01.225Z,90.70
2018-09-02T01:04:29.966Z,90.72
2018-09-02T01:06:58.545Z,90.62
2018-09-02T01:09:27.040Z,90.67
2018-09-02T01:11:55.702Z,90.77
2018-09-02T01:14:24.290Z,90.93
2018-09-02T01:16:53.041Z,90.71
2018-09-02T01:19:21.725Z,90.81
2018-09-02T01:21:50.423Z,91.05
2018-09-02T01:24:18.932Z,91.69
2018-09-02T01:26:47.629Z,91.51
2018-09-02T01:29:16.140Z,91.31
2018-09-02T01:31:44.821Z,91.30
2018-09-02T01:34:13.551Z,91.55
2018-09-02T01:36:42.205Z,91.92
2018-09-02T01:39:10.938Z,91.73
2018-09-02T01:41:39.518Z,91.72
2018-09-02T01:44:08.203Z,91.90
2018-09-02T01:46:36.906Z,91.74
2018-09-02T01:49:05.571Z,92.06
2018-09-02T01:51:34.240Z,91.67
2018-09-02T01:54:02.928Z,91.83
2018-09-02T01:56:31.666Z,92.16
2018-09-02T01:59:00.299Z,92.23
2018-09-02T02:01:29.003Z,92.07
2018-09-02T02:03:57.658Z,92.26
2018-09-02T02:06:27.353Z,92.30
2018-09-02T02:08:56.153Z,92.22
2018-09-02T02:11:24.854Z,92.42
2018-09-02T02:13:53.548Z,92.62
2018-09-02T02:16:22.280Z,92.16
2018-09-02T02:18:50.961Z,92.65
2018-09-02T02:21:19.570Z,92.77
2018-09-02T02:23:48.218Z,92.09
2018-09-02T02:26:16.871Z,92.55
2018-09-02T02:28:45.537Z,92.71
2018-09-02T02:31:14.160Z,92.74
2018-09-02T02:33:42.866Z,92.47
2018-09-02T02:36:11.555Z,92.49
2018-09-02T02:38:40.323Z,92.89
2018-09-02T02:41:08.850Z,92.90
2018-09-02T02:43:37.523Z,93.11
2018-09-02T02:46:06.065Z,93.17
2018-09-02T02:48:34.739Z,92.83
2018-09-02T02:51:03.480Z,93.27
2018-09-02T02:53:32.016Z,92.89
2018-09-02T02:56:00.595Z,93.29
2018-09-02T02:58:29.184Z,93.37
2018-09-02T03:00:57.860Z,93.37
2018-09-02T03:03:26.520Z,93.09
2018-09-02T03:05:55.157Z,93.19
2018-09-02T03:08:23.820Z,93.38
2018-09-02T03:10:52.560Z,93.36
2018-09-02T03:13:21.157Z,93.49
2018-09-02T03:15:49.760Z,93.47
2018-09-02T03:18:18.461Z,93.86
2018-09-02T03:20:47.003Z,93.98
2018-09-02T03:23:15.745Z,93.98
2018-09-02T03:25:44.445Z,93.59
2018-09-02T03:28:13.115Z,93.70
2018-09-02T03:30:41.739Z,93.53
2018-09-02T03:33:10.336Z,93.91
2018-09-02T03:35:38.996Z,93.46
2018-09-02T03:38:07.768Z,93.65
2018-09-02T03:40:36.356Z,93.39
2018-09-02T03:43:05.199Z,94.18
2018-09-02T03:45:33.825Z,94.16
2018-09-02T03:48:02.475Z,93.80
2018-09-02T03:50:31.199Z,93.88
2018-09-02T03:52:59.832Z,94.39
2018-09-02T03:55:28.608Z,94.57
2018-09-02T03:57:57.219Z,94.57
2018-09-02T04:00:25.889Z,94.35
2018-09-02T04:02:54.556Z,94.06
2018-09-02T04:05:23.226Z,94.29
2018-09-02T04:07:51.871Z,94.38
2018-09-02T04:10:20.513Z,94.38
2018-09-02T04:12:49.276Z,94.73
2018-09-02T04:15:17.991Z,94.88
2018-09-02T04:17:46.646Z,94.63
2018-09-02T04:20:19.491Z,94.66
2018-09-02T04:22:48.158Z,94.62
2018-09-02T04:25:16.874Z,95.08
2018-09-02T04:27:45.634Z,94.92
2018-09-02T04:30:14.336Z,94.84
2018-09-02T04:32:43.015Z,95.07
2018-09-02T04:35:11.716Z,94.91
2018-09-02T04:37:40.399Z,94.62
2018-09-02T04:40:09.106Z,94.40
2018-09-02T04:42:37.792Z,95.03
2018-09-02T04:45:06.522Z,94.71
2018-09-02T04:47:35.282Z,94.47
2018-09-02T04:50:10.672Z,94.73
2018-09-02T04:52:39.336Z,94.72
2018-09-02T04:55:08.005Z,94.75
2018-09-02T04:57:36.799Z,94.63
2018-09-02T05:00:06.198Z,94.39
2018-09-02T05:02:34.862Z,94.46
2018-09-02T05:05:04.014Z,95.01
2018-09-02T05:07:32.932Z,94.89
2018-09-02T05:10:01.679Z,95.03
2018-09-02T05:12:30.386Z,94.93
2018-09-02T05:14:59.720Z,94.93
2018-09-02T05:17:31.091Z,94.53
2018-09-02T05:20:00.118Z,94.71
2018-09-02T05:22:29.244Z,94.37
2018-09-02T05:24:58.942Z,94.69
2018-09-02T05:27:27.651Z,94.40
2018-09-02T05:29:56.377Z,94.34
2018-09-02T05:32:24.968Z,94.94
2018-09-02T05:34:53.653Z,95.03
2018-09-02T05:37:22.163Z,94.91
2018-09-02T05:39:50.866Z,95.14
2018-09-02T05:42:19.589Z,94.61
2018-09-02T05:44:48.300Z,95.16
2018-09-02T05:47:16.845Z,95.19
2018-09-02T05:49:45.597Z,95.15
2018-09-02T05:52:15.300Z,95.04
2018-09-02T05:54:43.858Z,95.11
2018-09-02T05:57:12.540Z,95.02
2018-09-02T05:59:41.265Z,95.11
2018-09-02T06:02:10.036Z,95.13
2018-09-02T06:04:38.733Z,94.89
2018-09-02T06:07:07.376Z,94.97
2018-09-02T06:09:36.053Z,95.27
2018-09-02T06:12:04.671Z,95.10
2018-09-02T06:14:33.644Z,95.04
2018-09-02T06:17:02.370Z,95.03
2018-09-02T06:19:31.168Z,94.63
2018-09-02T06:21:59.736Z,94.75
2018-09-02T06:24:28.511Z,94.91
2018-09-02T06:26:57.260Z,94.91
2018-09-02T06:29:26.007Z,94.34
2018-09-02T06:31:54.663Z,94.35
2018-09-02T06:34:23.495Z,94.43
2018-09-02T06:36:52.191Z,94.26
2018-09-02T06:39:20.788Z,94.32
2018-09-02T06:41:49.433Z,93.99
2018-09-02T06:44:18.054Z,94.20
2018-09-02T06:46:46.718Z,93.92
2018-09-02T06:49:15.420Z,94.12
2018-09-02T06:51:43.935Z,94.20
2018-09-02T06:54:12.677Z,93.90
2018-09-02T06:56:41.523Z,93.84
2018-09-02T06:59:10.296Z,93.68
2018-09-02T07:01:39.028Z,93.28
2018-09-02T07:04:07.805Z,92.95
2018-09-02T07:06:36.495Z,92.90
2018-09-02T07:09:06.096Z,92.92
2018-09-02T07:11:34.854Z,92.54
2018-09-02T07:14:03.587Z,92.45
2018-09-02T07:16:32.215Z,92.16
2018-09-02T07:19:00.815Z,92.11
2018-09-02T07:21:29.485Z,92.24
2018-09-02T07:23:58.283Z,92.14
2018-09-02T07:26:27.001Z,91.75
2018-09-02T07:28:56.586Z,91.63
2018-09-02T07:31:25.371Z,91.59
2018-09-02T07:33:54.237Z,90.96
2018-09-02T07:36:23.004Z,90.94
2018-09-02T07:38:51.776Z,91.01
2018-09-02T07:41:20.535Z,91.65
2018-09-02T07:43:49.329Z,91.02
2018-09-02T07:46:18.055Z,90.76
2018-09-02T07:48:46.640Z,90.65
2018-09-02T07:51:15.307Z,89.72
2018-09-02T07:53:43.896Z,89.96
2018-09-02T07:56:12.682Z,90.20
2018-09-02T07:58:41.259Z,89.69
2018-09-02T08:01:09.956Z,89.28
2018-09-02T08:03:38.615Z,89.09
2018-09-02T08:06:07.296Z,88.76
2018-09-02T08:08:36.064Z,88.48
2018-09-02T08:11:04.814Z,87.91
2018-09-02T08:13:33.430Z,87.32
2018-09-02T08:16:02.153Z,86.67
2018-09-02T08:18:30.954Z,86.12
2018-09-02T08:20:59.676Z,85.84
2018-09-02T08:23:28.409Z,84.13
2018-09-02T08:25:58.040Z,83.81
2018-09-02T08:28:26.774Z,81.69
2018-09-02T08:30:55.599Z,81.54
2018-09-02T08:33:24.289Z,81.15
2018-09-02T08:35:52.981Z,81.45
2018-09-02T08:38:21.743Z,80.81
2018-09-02T08:40:50.445Z,80.20
2018-09-02T08:43:19.061Z,79.48
2018-09-02T08:45:47.742Z,78.85
2018-09-02T08:48:16.803Z,76.83
2018-09-02T08:50:45.499Z,72.60
2018-09-02T08:53:14.296Z,72.92
2018-09-02T08:55:43.030Z,72.13
2018-09-02T08:58:11.788Z,71.89
2018-09-02T09:00:40.600Z,67.38
2018-09-02T09:03:09.400Z,66.41
2018-09-02T09:05:38.103Z,66.68
2018-09-02T09:08:06.860Z,65.91
2018-09-02T09:10:35.503Z,64.81
2018-09-02T09:13:04.242Z,65.08
2018-09-02T09:15:32.909Z,65.23
2018-09-02T09:18:01.666Z,64.04
2018-09-02T09:20:30.280Z,63.25
2018-09-02T09:22:58.996Z,62.55
2018-09-02T09:25:27.813Z,61.60
2018-09-02T09:27:56.505Z,61.11
2018-09-02T09:30:25.116Z,60.05
2018-09-02T09:32:53.754Z,59.18
2018-09-02T09:35:22.369Z,57.62
2018-09-02T09:37:51.062Z,56.32
2018-09-02T09:40:19.790Z,55.98
2018-09-02T09:42:48.508Z,55.42
2018-09-02T09:45:17.246Z,53.06
2018-09-02T09:47:46.040Z,52.43
2018-09-02T09:50:14.790Z,52.24
2018-09-02T09:52:43.488Z,51.35
2018-09-02T09:55:12.212Z,50.94
2018-09-02T09:57:41.201Z,51.25
2018-09-02T10:00:10.041Z,50.66
2018-09-02T10:02:38.915Z,50.31
2018-09-02T10:05:07.488Z,50.37
2018-09-02T10:07:36.095Z,50.63
2018-09-02T10:10:04.806Z,50.21
2018-09-02T10:12:33.529Z,49.03
2018-09-02T10:15:02.150Z,49.34
2018-09-02T10:17:30.939Z,48.67
2018-09-02T10:19:59.534Z,48.19
2018-09-02T10:22:28.152Z,47.90
2018-09-02T10:24:56.747Z,48.04
2018-09-02T10:27:25.385Z,48.63
2018-09-02T10:29:54.116Z,47.55
2018-09-02T10:32:23.159Z,47.43
2018-09-02T10:34:51.936Z,47.82
2018-09-02T10:37:20.634Z,47.80
2018-09-02T10:39:53.098Z,45.59
2018-09-02T10:42:21.919Z,46.45
2018-09-02T10:44:50.653Z,46.15
2018-09-02T10:47:19.299Z,45.48
2018-09-02T10:49:51.391Z,44.13
2018-09-02T10:52:20.098Z,44.18
2018-09-02T10:54:48.763Z,43.99
2018-09-02T10:57:17.480Z,44.14
2018-09-02T10:59:46.281Z,44.04
2018-09-02T11:02:14.874Z,43.52
2018-09-02T11:04:43.626Z,43.01
2018-09-02T11:07:12.296Z,42.77
2018-09-02T11:09:40.970Z,42.82
2018-09-02T11:12:09.654Z,41.80
2018-09-02T11:14:38.370Z,41.84
2018-09-02T11:17:07.008Z,42.65
2018-09-02T11:19:35.824Z,41.93
2018-09-02T11:22:04.588Z,41.79
2018-09-02T11:24:33.336Z,42.21
2018-09-02T11:27:01.953Z,41.36
2018-09-02T11:29:31.644Z,41.48
2018-09-02T11:32:00.380Z,41.46
2018-09-02T11:34:29.074Z,41.91
2018-09-02T11:36:57.744Z,41.63
2018-09-02T11:39:26.424Z,41.91
2018-09-02T11:41:55.324Z,41.26
2018-09-02T11:44:24.034Z,41.67
2018-09-02T11:46:53.146Z,41.14
2018-09-02T11:49:21.823Z,41.50
2018-09-02T11:51:50.598Z,40.30
2018-09-02T11:54:19.223Z,40.49
2018-09-02T11:56:47.809Z,40.10
2018-09-02T11:59:16.442Z,39.71
2018-09-02T12:01:45.208Z,39.92
2018-09-02T12:04:13.994Z,39.15
2018-09-02T12:06:42.594Z,39.36
2018-09-02T12:09:11.306Z,39.65
2018-09-02T12:11:39.957Z,39.67
2018-09-02T12:14:08.690Z,38.95
2018-09-02T12:16:37.308Z,38.65
2018-09-02T12:19:05.927Z,39.15
2018-09-02T12:21:34.688Z,38.92
2018-09-02T12:24:03.387Z,38.85
2018-09-02T12:26:32.070Z,38.60
2018-09-02T12:29:00.773Z,38.58
2018-09-02T12:31:29.391Z,36.65
2018-09-02T12:33:58.158Z,37.45
2018-09-02T12:36:26.906Z,37.20
2018-09-02T12:38:55.695Z,37.59
2018-09-02T12:41:24.388Z,37.09
2018-09-02T12:43:53.153Z,36.12
2018-09-02T12:46:21.842Z,36.44
2018-09-02T12:48:50.748Z,36.67
2018-09-02T12:51:19.411Z,35.35
2018-09-02T12:53:48.197Z,35.45
2018-09-02T12:56:16.776Z,35.81
2018-09-02T12:58:45.506Z,35.72
2018-09-02T13:01:14.143Z,35.16
2018-09-02T13:03:42.812Z,35.61
2018-09-02T13:06:11.655Z,35.09
2018-09-02T13:08:40.387Z,33.97
2018-09-02T13:11:09.703Z,29.70
2018-09-02T13:13:38.440Z,25.90
2018-09-02T13:16:07.119Z,24.07
2018-09-02T13:18:35.760Z,20.31
2018-09-02T13:21:04.439Z,20.26
2018-09-02T13:23:33.184Z,19.59
2018-09-02T13:26:01.933Z,18.39
2018-09-02T13:28:30.574Z,17.57
2018-09-02T13:30:59.195Z,17.45
2018-09-02T13:33:27.914Z,17.04
2018-09-02T13:35:56.883Z,16.84
2018-09-02T13:38:25.595Z,16.49
2018-09-02T13:40:54.305Z,15.93
2018-09-02T13:43:23.002Z,14.71
2018-09-02T13:45:51.659Z,15.20
2018-09-02T13:48:20.378Z,15.18
2018-09-02T13:50:48.974Z,14.77
2018-09-02T13:53:17.775Z,14.52
2018-09-02T13:55:46.485Z,14.09
2018-09-02T13:58:15.224Z,15.07
2018-09-02T14:00:44.957Z,13.88
2018-09-02T14:03:13.675Z,14.47
2018-09-02T14:05:42.481Z,13.77
2018-09-02T14:08:11.117Z,13.62
2018-09-02T14:10:39.783Z,13.62
2018-09-02T14:13:08.612Z,12.97
2018-09-02T14:15:37.340Z,15.04
2018-09-02T14:18:06.116Z,14.71
2018-09-02T14:20:34.757Z,13.48
2018-09-02T14:23:03.436Z,14.62
2018-09-02T14:25:32.120Z,15.16
2018-09-02T14:28:00.757Z,14.06
2018-09-02T14:30:29.475Z,13.98
2018-09-02T14:32:58.183Z,13.97
2018-09-02T14:35:26.945Z,13.92
2018-09-02T14:37:55.656Z,13.21
2018-09-02T14:40:24.405Z,13.03
2018-09-02T14:42:53.106Z,13.04
2018-09-02T14:45:21.809Z,13.00
2018-09-02T14:47:50.377Z,13.22
2018-09-02T14:50:19.172Z,12.62
2018-09-02T14:52:47.871Z,11.81
2018-09-02T14:55:16.590Z,10.87
2018-09-02T14:57:45.308Z,10.25
2018-09-02T15:00:14.096Z,11.14
2018-09-02T15:02:42.753Z,10.88
2018-09-02T15:05:11.486Z,10.96
2018-09-02T15:07:40.096Z,10.82
2018-09-02T15:10:08.952Z,11.12
2018-09-02T15:12:37.694Z,11.00
2018-09-02T15:15:06.354Z,10.25
2018-09-02T15:17:35.124Z,11.25
2018-09-02T15:20:03.990Z,10.85
2018-09-02T15:22:32.663Z,10.74
2018-09-02T15:25:01.387Z,9.85
2018-09-02T15:27:30.079Z,11.09
2018-09-02T15:29:58.809Z,12.84
2018-09-02T15:32:27.473Z,12.74
2018-09-02T15:34:56.300Z,12.21
2018-09-02T15:37:25.857Z,12.94
2018-09-02T15:39:54.561Z,12.09
2018-09-02T15:42:23.206Z,13.20
2018-09-02T15:44:51.930Z,13.45
2018-09-02T15:47:20.493Z,12.57
2018-09-02T15:49:49.166Z,12.61
2018-09-02T15:52:17.842Z,14.04
2018-09-02T15:54:46.544Z,14.96
2018-09-02T15:57:15.580Z,16.75
2018-09-02T15:59:44.335Z,17.95
2018-09-02T16:02:13.088Z,20.52
2018-09-02T16:04:42.266Z,22.20
2018-09-02T16:07:11.003Z,24.21
2018-09-02T16:09:39.619Z,25.48
2018-09-02T16:12:08.812Z,27.02
2018-09-02T16:14:37.575Z,27.79
2018-09-02T16:17:06.321Z,28.51
2018-09-02T16:19:35.086Z,28.88
2018-09-02T16:22:03.789Z,29.24
2018-09-02T16:24:32.517Z,30.28
2018-09-02T16:27:01.164Z,30.78
2018-09-02T16:29:30.008Z,31.15
2018-09-02T16:31:58.686Z,30.92
2018-09-02T16:34:27.377Z,31.78
2018-09-02T16:36:56.038Z,32.64
2018-09-02T16:39:24.884Z,32.84
2018-09-02T16:41:53.569Z,33.71
2018-09-02T16:44:22.280Z,33.60
2018-09-02T16:46:50.912Z,34.37
2018-09-02T16:49:19.587Z,34.91
2018-09-02T16:51:48.227Z,35.25
2018-09-02T16:54:16.880Z,36.39
2018-09-02T16:56:45.680Z,36.11
2018-09-02T16:59:14.350Z,36.92
2018-09-02T17:01:44.148Z,36.93
2018-09-02T17:04:12.796Z,36.41
2018-09-02T17:06:41.477Z,37.24
2018-09-02T17:09:11.714Z,36.83
2018-09-02T17:11:41.069Z,37.96
2018-09-02T17:14:10.302Z,37.64
2018-09-02T17:16:39.040Z,38.47
2018-09-02T17:19:13.705Z,38.57
2018-09-02T17:21:42.514Z,38.71
2018-09-02T17:24:11.256Z,40.09
2018-09-02T17:26:39.967Z,40.46
2018-09-02T17:29:08.722Z,40.51
2018-09-02T17:31:37.490Z,41.43
2018-09-02T17:34:06.253Z,40.94
2018-09-02T17:36:35.038Z,42.17
2018-09-02T17:39:04.931Z,41.97
2018-09-02T17:41:37.380Z,43.08
2018-09-02T17:44:06.256Z,43.76
2018-09-02T17:46:34.850Z,43.84
2018-09-02T17:49:03.581Z,43.93
2018-09-02T17:51:32.353Z,43.88
2018-09-02T17:54:00.950Z,44.92
2018-09-02T17:56:29.708Z,45.35
2018-09-02T17:58:58.514Z,45.03
2018-09-02T18:01:27.364Z,45.84
2018-09-02T18:03:56.153Z,45.80
2018-09-02T18:06:24.896Z,45.75
2018-09-02T18:08:53.534Z,45.72
2018-09-02T18:11:22.196Z,46.52
2018-09-02T18:13:50.944Z,46.30
2018-09-02T18:16:19.600Z,46.86
2018-09-02T18:18:48.316Z,47.19
2018-09-02T18:21:16.966Z,46.82
2018-09-02T18:23:45.636Z,47.25
2018-09-02T18:26:14.357Z,47.32
2018-09-02T18:28:44.783Z,47.40
2018-09-02T18:31:13.566Z,48.32
2018-09-02T18:33:42.299Z,48.44
2018-09-02T18:36:11.164Z,48.38
2018-09-02T18:38:39.699Z,48.68
2018-09-02T18:41:08.523Z,49.43
2018-09-02T18:43:37.040Z,49.30
2018-09-02T18:46:05.813Z,49.75
2018-09-02T18:48:34.605Z,50.65
2018-09-02T18:51:03.289Z,51.42
2018-09-02T18:53:31.888Z,51.44
2018-09-02T18:56:00.701Z,51.51
2018-09-02T18:58:29.476Z,52.14
2018-09-02T19:00:58.310Z,52.40
2018-09-02T19:03:27.028Z,52.90
2018-09-02T19:05:55.748Z,52.79
2018-09-02T19:08:24.484Z,52.28
2018-09-02T19:10:53.230Z,52.69
2018-09-02T19:13:21.914Z,52.80
2018-09-02T19:15:50.587Z,53.03
2018-09-02T19:18:19.282Z,53.71
2018-09-02T19:20:47.940Z,54.17
2018-09-02T19:23:16.681Z,54.29
2018-09-02T19:25:45.711Z,54.79
2018-09-02T19:28:14.436Z,55.25
2018-09-02T19:30:43.137Z,56.10
2018-09-02T19:33:11.800Z,56.04
2018-09-02T19:35:40.544Z,56.37
2018-09-02T19:38:09.128Z,56.82
2018-09-02T19:40:37.848Z,56.70
2018-09-02T19:43:06.538Z,57.26
2018-09-02T19:45:35.159Z,57.88
2018-09-02T19:48:03.938Z,58.37
2018-09-02T19:50:32.639Z,58.92
2018-09-02T19:53:01.259Z,59.15
2018-09-02T19:55:29.880Z,58.99
2018-09-02T19:57:58.594Z,58.95
2018-09-02T20:00:27.273Z,58.56
2018-09-02T20:02:55.895Z,58.56
2018-09-02T20:05:24.570Z,57.64
2018-09-02T20:07:53.382Z,57.26
2018-09-02T20:10:21.981Z,57.14
2018-09-02T20:12:50.729Z,56.34
2018-09-02T20:15:19.464Z,56.17
2018-09-02T20:17:48.083Z,56.01
2018-09-02T20:20:16.843Z,55.70
2018-09-02T20:22:45.527Z,55.88
2018-09-02T20:25:14.236Z,55.90
2018-09-02T20:27:42.919Z,55.48
2018-09-02T20:30:11.559Z,55.24
2018-09-02T20:32:40.133Z,55.08
2018-09-02T20:35:08.691Z,55.98
2018-09-02T20:37:37.304Z,55.83
2018-09-02T20:40:06.652Z,55.87
2018-09-02T20:42:35.380Z,55.54
2018-09-02T20:45:04.044Z,55.87
2018-09-02T20:47:32.800Z,56.43
2018-09-02T20:50:01.602Z,55.57
2018-09-02T20:52:31.145Z,55.63
2018-09-02T20:54:59.708Z,55.87
2018-09-02T20:57:28.451Z,56.32
2018-09-02T20:59:57.123Z,56.90
2018-09-02T21:02:25.821Z,56.32
2018-09-02T21:04:54.514Z,56.41
2018-09-02T21:07:23.128Z,57.11
2018-09-02T21:09:51.902Z,57.29
2018-09-02T21:12:20.605Z,57.42
2018-09-02T21:14:49.242Z,58.13
2018-09-02T21:17:17.964Z,58.19
2018-09-02T21:19:46.672Z,58.70
2018-09-02T21:22:15.372Z,58.93
2018-09-02T21:24:44.170Z,59.69
2018-09-02T21:27:12.867Z,60.03
2018-09-02T21:29:41.498Z,59.71
2018-09-02T21:32:10.194Z,60.67
2018-09-02T21:34:38.821Z,60.58
2018-09-02T21:37:07.523Z,60.66
2018-09-02T21:39:36.062Z,60.39
2018-09-02T21:42:04.710Z,60.58
2018-09-02T21:44:33.907Z,60.45
2018-09-02T21:47:02.566Z,59.85
2018-09-02T21:49:31.136Z,59.87
2018-09-02T21:51:59.796Z,60.27
2018-09-02T21:54:28.465Z,59.91
2018-09-02T21:56:58.186Z,59.97
2018-09-02T21:59:26.861Z,59.57
2018-09-02T22:01:55.505Z,59.47
2018-09-02T22:04:24.110Z,59.77
2018-09-02T22:06:52.772Z,59.48
2018-09-02T22:09:21.511Z,59.55
2018-09-02T22:11:50.153Z,59.74
2018-09-02T22:14:18.842Z,60.16
2018-09-02T22:16:47.500Z,61.00
2018-09-02T22:19:16.194Z,60.61
2018-09-02T22:21:44.819Z,60.89
2018-09-02T22:24:13.503Z,61.40
2018-09-02T22:26:42.251Z,61.60
2018-09-02T22:29:10.987Z,62.02
2018-09-02T22:31:40.156Z,62.42
2018-09-02T22:34:08.860Z,62.54
2018-09-02T22:36:37.540Z,62.79
2018-09-02T22:39:08.221Z,63.16
2018-09-02T22:41:36.931Z,63.42
2018-09-02T22:44:05.620Z,63.92
2018-09-02T22:46:34.292Z,63.71
2018-09-02T22:49:02.994Z,64.18
2018-09-02T22:51:31.575Z,64.52
2018-09-02T22:54:00.339Z,64.96
2018-09-02T22:56:29.013Z,64.84
2018-09-02T22:58:57.662Z,65.05
2018-09-02T23:01:26.332Z,65.54
2018-09-02T23:03:55.043Z,66.04
2018-09-02T23:06:23.707Z,66.04
2018-09-02T23:08:52.378Z,66.76
2018-09-02T23:11:21.119Z,66.72
2018-09-02T23:13:49.757Z,66.68
2018-09-02T23:16:18.380Z,67.07
2018-09-02T23:18:47.119Z,66.60
2018-09-02T23:21:15.810Z,66.53
2018-09-02T23:23:44.667Z,66.75
2018-09-02T23:26:13.387Z,66.62
2018-09-02T23:28:42.334Z,66.60
2018-09-02T23:31:11.011Z,66.75
2018-09-02T23:33:39.744Z,67.17
2018-09-02T23:36:08.275Z,67.69
2018-09-02T23:38:36.893Z,67.37
2018-09-02T23:41:05.734Z,67.94
2018-09-02T23:43:34.430Z,68.13
2018-09-02T23:46:02.985Z,68.09
2018-09-02T23:48:31.525Z,68.16
2018-09-02T23:51:00.219Z,68.06
2018-09-02T23:53:28.873Z,68.28
2018-09-02T23:55:57.515Z,68.67
2018-09-02T23:58:26.029Z,68.28
